Tiempo atmosférico en la estación meteorológica de El Pedregal, Guadalajara (1185 m.)



Fecha
DESCASC
Temp. máxima en grados centígrados (hora)
DESCASC
Temp. mínima en grados centígrados (hora)
DESCASC
Temp. media en grados centígrados
DESCASC
Racha de viento máxima en m/sg (hora)
DESCASC
Velocidad máxima media en intervalos de 10 minutos(hora)
DESCASC
Precipitaciones diarias en mm
DESCASC
Precipitaciones de 00:00 a 06:00 en mm
DESCASC
Precipitaciones de 06:00 a 12:00 en mm
DESCASC
Precipitaciones de 12:00 a 18:00 en mm
DESCASC
Precipitaciones de 18:00 a 24:00 en mm
DESCASC
05-04-2020 16.8 (18:40) 4.1 (05:40) 10.4 6.67 (19:50) 4.17 (23:40) 0.2 0 0.2 0 0
04-04-2020 15.4 (16:30) -1.8 (07:50) 6.8 9.72 (13:30) 6.11 (15:50) 0 0 0 0 0
03-04-2020 14.6 (18:00) -1.6 (07:00) 6.5 7.78 (15:00) 3.33 (11:50) 0 0 0 0 0
02-04-2020 7.9 (14:10) 3.7 (00:00) 5.8 8.61 (17:20) 4.44 (14:20) 1 0 0 0.6 0.4
01-04-2020 9.7 (16:00) 3.9 (00:00) 6.8 7.78 (16:50) 5.28 (16:50) 15.2 6.2 1.8 4.8 2.4
31-03-2020 7.5 (17:10) -3.2 (-00:0) 2.1 8.61 (14:30) 5.83 (14:30) 3.4 0 0.8 2.4 0.2
30-03-2020 3.5 (02:50) -2.4 (-00:0) 0.5 7.5 (22:00) 5 (22:00) 0.2 0 0 0.2 0
29-03-2020 15.6 (18:10) 0.6 (00:00) 8.1 8.89 (16:00) 5 (19:20) 0 0 0 0 0
28-03-2020 12.9 (16:30) -2.6 (-00:0) 5.1 6.67 (12:40) 4.17 (12:00) 0 0 0 0 0
27-03-2020 9.8 (17:40) -2.4 (-00:0) 3.7 9.72 (17:50) 4.72 (16:30) 0 0 0 0 0
26-03-2020 8.1 (16:10) -1.5 (-00:0) 3.3 12.78 (11:30) 6.67 (10:50) 0 0 0 0 0
25-03-2020 10.5 (15:30) 0.1 (00:00) 5.3 10.28 (08:30) 6.39 (08:30) 0 0 0 0 0
24-03-2020 8.6 (16:00) 0.2 (00:00) 4.4 9.72 (04:40) 6.11 (09:50) 0 0 0 0 0
23-03-2020 11.1 (15:50) 4.6 (00:00) 7.9 10.83 (14:30) 6.11 (14:20) 2.4 0 1 1.2 0.2
22-03-2020 9.4 (12:20) 4.2 (23:40) 6.8 7.22 (19:20) 4.72 (19:30) 7.2 4.2 1.2 0 1.8
21-03-2020 9.2 (18:10) 0 (00:00) 4.6 5.83 (16:50) 4.17 (16:20) 0 0 0 0 0
20-03-2020 12.9 (15:40) 2.7 (00:00) 7.8 8.89 (16:30) 6.11 (16:30) 0 0 0 0 0
19-03-2020 14.1 (15:20) 1.2 (00:00) 7.7 8.61 (12:10) 5.83 (16:10) 0.2 0 0.2 0 0
18-03-2020 13.5 (12:40) 2.6 (00:00) 8 5.83 (19:30) 4.17 (19:30) 0 0 0 0 0
17-03-2020 8.8 (12:20) 1.4 (00:00) 5.1 8.89 (15:50) 5.56 (19:20) 29.8 20.6 6.8 2.4 0
16-03-2020 6.2 (03:30) 0.4 (00:00) 3.3 8.89 (09:50) 6.11 (09:50) 27.4 3.2 15.2 5 4
15-03-2020 17.9 (14:00) 3.3 (00:00) 10.6 14.72 (18:10) 9.17 (19:00) 1.2 0 0 0 1.2
14-03-2020 18.6 (16:20) 2.9 (00:00) 10.8 6.67 (14:20) 4.44 (18:10) 0 0 0 0 0
13-03-2020 18.1 (15:40) 3.7 (23:50) 10.9 8.89 (12:30) 5.83 (15:50) 0 0 0 0 0
12-03-2020 24.7 (12:40) 7.7 (00:00) 16.2 6.67 (17:10) 3.33 (12:10) 0 0 0 0 0
11-03-2020 23.2 (14:50) 6.4 (00:00) 14.8 8.33 (15:30) 5 (02:30) 0 0 0 0 0
10-03-2020 20.3 (15:30) 2.8 (00:00) 11.5 9.72 (11:10) 7.22 (01:50) 0 0 0 0 0

Gráficas

Temp. máximas Temp. mínimas Temp. medias Precipitaciones Rachas de viento máximas Velocidades máximas media en intervalos de 10 minutos

Datos horarios

Fecha y hora oficial Temperatura (ºC) Velocidad del viento (km/h) Dirección del viento Racha (km/h) Dirección de racha Precipitación (mm) Presión (hPa) Tendencia (hPa) Humedad (%)
2020-04-08 23:00:00 10.4 0 Calma 9 Este 0.4 -- -- 92
2020-04-08 22:00:00 10.7 4 Sudoeste 19 Sudeste 0 -- -- 89
2020-04-08 21:00:00 11.2 9 Sudeste 19 Sudeste 0.4 -- -- 92
2020-04-08 20:00:00 12.7 14 Sudeste 22 Este 0 -- -- 78
2020-04-08 19:00:00 15 14 Este 23 Este 0 -- -- 71
2020-04-08 18:00:00 13.9 13 Nordeste 26 Norte 0 -- -- 70
2020-04-08 17:00:00 17.2 6 Este 17 Este 0 -- -- 53
2020-04-08 16:00:00 14.5 9 Sudeste 21 Sudeste 0 -- -- 70
2020-04-08 15:00:00 14.5 9 Sudeste 19 Este 0 -- -- 69
2020-04-08 14:00:00 15.9 12 Este 18 Este 0 -- -- 68
2020-04-08 13:00:00 13.3 12 Este 17 Este 0 -- -- 80
2020-04-08 12:00:00 11.6 12 Este 16 Sudeste 0 -- -- 89
2020-04-08 11:00:00 12.8 12 Este 16 Este 0 -- -- 85
2020-04-08 10:00:00 11 4 Sudeste 8 Este 0 -- -- 95
2020-04-08 09:00:00 8.5 3 Este 8 Sudeste 0 -- -- 97
2020-04-08 08:00:00 7.1 3 Oeste 10 Sudoeste 0 -- -- 98
2020-04-08 07:00:00 7.1 2 Sudoeste 10 Sudoeste 0 -- -- 98
2020-04-08 06:00:00 6.9 0 Calma 4 Norte 0 -- -- 98
2020-04-08 05:00:00 7.6 0 Calma 5 Sudoeste 0 -- -- 98
2020-04-08 04:00:00 8.5 2 Este 5 Sudeste 0 -- -- 97
2020-04-08 03:00:00 8.9 0 Calma 5 Norte 0 -- -- 97
2020-04-08 02:00:00 9.2 4 Norte 7 Oeste 0 -- -- 96
2020-04-08 01:00:00 9.2 5 Oeste 9 Oeste 0 -- -- 95
2020-04-08 00:00:00 8.9 6 Oeste 10 Sudoeste 0 -- -- 97
2020-04-07 23:00:00 8.9 3 Sudeste 18 Sudeste 0 -- -- 97
2020-04-07 22:00:00 9.5 11 Sudeste 26 Sudeste 0.2 -- -- 96
2020-04-07 21:00:00 10 15 Sudeste 24 Sudeste 1.4 -- -- 96
2020-04-07 20:00:00 10.3 17 Este 28 Sudeste 1.2 -- -- 94
2020-04-07 19:00:00 10.8 12 Sudeste 28 Sudeste 2.4 -- -- 87
2020-04-07 18:00:00 13.5 18 Este 26 Este 0 -- -- 82
2020-04-07 17:00:00 16.1 5 Oeste 27 Nordeste 0 -- -- 69
2020-04-07 16:00:00 16.3 6 Este 18 Oeste 0.2 -- -- 69
2020-04-07 15:00:00 13.8 3 Sur 18 Este 0 -- -- 78
2020-04-07 14:00:00 14.4 3 Este 12 Este 0.6 -- -- 78
2020-04-07 13:00:00 11.5 8 Este 15 Este 0 -- -- 91
2020-04-07 12:00:00 11.9 9 Este 14 Este 0.2 -- -- 89
2020-04-07 11:00:00 9.5 8 Sudeste 11 Sudeste 0 -- -- 93
2020-04-07 10:00:00 9.3 6 Sudeste 12 Sudeste 0 -- -- 92
2020-04-07 09:00:00 8.7 3 Sudeste 9 Sudeste 0.2 -- -- 95
2020-04-07 08:00:00 8 5 Sudoeste 18 Sudoeste 3 -- -- 97
2020-04-07 07:00:00 8.2 7 Oeste 14 Oeste 0.2 -- -- 99
2020-04-07 06:00:00 7.8 0 Calma 5 Sur 0 -- -- 99
2020-04-07 05:00:00 7.9 0 Calma 3 Sudoeste 0 -- -- 98
2020-04-07 04:00:00 8.5 0 Calma 4 Sudeste 0 -- -- 98
2020-04-07 03:00:00 9.1 0 Calma 9 Este 0 -- -- 98
2020-04-07 02:00:00 9.5 4 Sudeste 8 Sudeste 0 -- -- 98
2020-04-07 01:00:00 9.7 3 Este 7 Este 0 -- -- 97
2020-04-07 00:00:00 10 4 Este 11 Este 0 -- -- 97
2020-04-06 23:00:00 10.3 6 Este 10 Este 0.4 -- -- 96
2020-04-06 22:00:00 10.8 0 Calma 5 Sudeste 0.8 -- -- 94
2020-04-06 21:00:00 11.3 4 Sudeste 15 Sudeste 0 -- -- 92
2020-04-06 20:00:00 13.1 7 Sur 15 Este 0 -- -- 82
2020-04-06 19:00:00 13.9 8 Oeste 19 Oeste 0 -- -- 67
2020-04-06 18:00:00 14.4 13 Oeste 26 Oeste 0 -- -- 66
2020-04-06 17:00:00 14.6 15 Oeste 31 Oeste 0 -- -- 69
2020-04-06 16:00:00 15.6 11 Sudoeste 23 Sudoeste 0 -- -- 61
2020-04-06 15:00:00 15 9 Sur 27 Sudoeste 0.2 -- -- 67
2020-04-06 14:00:00 14.3 18 Oeste 29 Oeste 0 -- -- 65
2020-04-06 13:00:00 15.3 14 Oeste 25 Oeste 0 -- -- 57
2020-04-06 12:00:00 15.7 11 Sudoeste 27 Sudoeste 0 -- -- 56
2020-04-06 11:00:00 14.4 15 Sudoeste 27 Sudoeste 0 -- -- 60
2020-04-06 10:00:00 11.8 10 Sudoeste 21 Sudoeste 0 -- -- 72
2020-04-06 09:00:00 10.6 6 Oeste 16 Sudoeste 0 -- -- 79
2020-04-06 08:00:00 9.8 13 Sur 21 Sudoeste 0 -- -- 80
2020-04-06 07:00:00 10.3 15 Sudoeste 24 Sur 0 -- -- 77
2020-04-06 06:00:00 10.2 7 Sur 12 Sur 0 -- -- 78
2020-04-06 05:00:00 10 5 Sur 13 Sur 0 -- -- 78
2020-04-06 04:00:00 10.2 8 Sur 17 Sudoeste 0 -- -- 77
2020-04-06 03:00:00 10.4 9 Sudoeste 23 Sudoeste 0 -- -- 76
2020-04-06 02:00:00 10.8 13 Sudoeste 24 Sur 0 -- -- 73
2020-04-06 01:00:00 10.8 16 Sur 27 Sudoeste 0 -- -- 71
2020-04-06 00:00:00 10.4 14 Sudoeste 22 Sur 0 -- -- 72
2020-04-05 23:00:00 8.5 4 Este 14 Sur 0 -- -- 73
2020-04-05 22:00:00 10.3 0 Calma 19 Sudoeste 0 -- -- 66
2020-04-05 21:00:00 11.1 2 Oeste 17 Oeste 0 -- -- 61
2020-04-05 20:00:00 14.9 9 Oeste 24 Oeste 0 -- -- 48
2020-04-05 19:00:00 16.2 5 Sudeste 14 Este 0 -- -- 53
2020-04-05 18:00:00 16 8 Este 21 Este 0 -- -- 53
2020-04-05 17:00:00 14.3 15 Este 23 Sudeste 0 -- -- 58
2020-04-05 16:00:00 14.1 11 Sudeste 20 Sudeste 0 -- -- 58
2020-04-05 15:00:00 13.4 10 Sudeste 19 Este 0 -- -- 60
2020-04-05 14:00:00 13.2 12 Este 20 Este 0 -- -- 63
2020-04-05 13:00:00 13.2 12 Este 20 Este 0 -- -- 64
2020-04-05 12:00:00 11.4 13 Este 17 Sudeste 0 -- -- 70
2020-04-05 11:00:00 8.5 6 Este 12 Sudeste 0 -- -- 77
2020-04-05 10:00:00 6.1 5 Sudeste 9 Sudeste 0 -- -- 83
2020-04-05 09:00:00 5 2 Sudeste 4 Sudeste 0 -- -- 86
2020-04-05 08:00:00 4.3 0 Calma 6 Sudeste 0 -- -- 91
2020-04-05 07:00:00 4.1 0 Calma 5 Sur 0.2 -- -- 90
2020-04-05 06:00:00 4.3 3 Sur 9 Sur 0 -- -- 88
2020-04-05 05:00:00 4.2 0 Calma 5 Sur 0 -- -- 88
2020-04-05 04:00:00 5.3 0 Calma 9 Sudoeste 0 -- -- 84
2020-04-05 03:00:00 5.9 3 Norte 12 Sur 0 -- -- 83
2020-04-05 02:00:00 6.8 5 Sudeste 13 Sur 0 -- -- 78
2020-04-05 01:00:00 6.3 2 Noroeste 17 Sudeste 0 -- -- 81
2020-04-05 00:00:00 6.2 8 Sudeste 17 Sudeste 0 -- -- 83
2020-04-04 23:00:00 6.3 7 Sudeste 19 Sudoeste 0 -- -- 82
2020-04-04 22:00:00 8.4 11 Sur 26 Sur 0 -- -- 67
2020-04-04 21:00:00 9.4 11 Sur 20 Sur 0 -- -- 61
2020-04-04 20:00:00 10.8 12 Sudeste 28 Sudeste 0 -- -- 55
2020-04-04 19:00:00 14.3 16 Sudeste 32 Sudeste 0 -- -- 45
2020-04-04 18:00:00 14.9 18 Sudeste 32 Sudeste 0 -- -- 39
2020-04-04 17:00:00 15.3 19 Sudeste 33 Sudeste 0 -- -- 39
2020-04-04 16:00:00 14.9 19 Sudeste 35 Sudeste 0 -- -- 38
2020-04-04 15:00:00 14.5 20 Sudeste 35 Sudeste 0 -- -- 45
2020-04-04 14:00:00 14.1 17 Sudeste 35 Sudeste 0 -- -- 44
2020-04-04 13:00:00 14 18 Sudeste 30 Este 0 -- -- 46
2020-04-04 12:00:00 12.9 9 Este 18 Este 0 -- -- 61
2020-04-04 11:00:00 10.4 11 Este 16 Sudeste 0 -- -- 65
2020-04-04 10:00:00 10 0 Calma 9 Sudoeste 0 -- -- 62
2020-04-04 09:00:00 3.5 0 Calma 7 Oeste 0 -- -- 81
2020-04-04 08:00:00 -1 7 Sudoeste 11 Oeste 0 -- -- 89
2020-04-04 07:00:00 -0.6 5 Oeste 12 Sudoeste 0 -- -- 86
2020-04-04 06:00:00 -0.7 3 Oeste 8 Sudoeste 0 -- -- 84
2020-04-04 05:00:00 -1 0 Calma 5 Oeste 0 -- -- 87
2020-04-04 04:00:00 0.7 0 Calma 8 Sudoeste 0 -- -- 81
2020-04-04 03:00:00 1.5 0 Calma 4 Sudoeste 0 -- -- 80
2020-04-04 02:00:00 1.1 0 Calma 4 Oeste 0 -- -- 83
2020-04-04 01:00:00 1.5 0 Calma 8 Oeste 0 -- -- 85
2020-04-04 00:00:00 2.2 3 Oeste 8 Sudoeste 0 -- -- 79
2020-04-03 23:00:00 2.2 3 Sudoeste 6 Oeste 0 -- -- 76
2020-04-03 22:00:00 3.1 4 Oeste 6 Oeste 0 -- -- 67
2020-04-03 21:00:00 6.2 0 Calma 13 Nordeste 0 -- -- 65
2020-04-03 20:00:00 11.5 8 Nordeste 14 Nordeste 0 -- -- 43
2020-04-03 19:00:00 13.5 8 Norte 14 Norte 0 -- -- 30
2020-04-03 18:00:00 14.6 4 Nordeste 18 Norte 0 -- -- 35
2020-04-03 17:00:00 13.5 6 Oeste 19 Oeste 0 -- -- 36
2020-04-03 16:00:00 12.4 5 Oeste 17 Oeste 0 -- -- 38
2020-04-03 15:00:00 11.6 9 Norte 28 Noroeste 0 -- -- 41
2020-04-03 14:00:00 10.8 9 Norte 22 Oeste 0 -- -- 38
2020-04-03 13:00:00 9.3 6 Oeste 15 Oeste 0 -- -- 56
2020-04-03 12:00:00 7.8 8 Oeste 19 Oeste 0 -- -- 60
2020-04-03 11:00:00 5.7 7 Oeste 15 Oeste 0 -- -- 68
2020-04-03 10:00:00 3.7 6 Oeste 13 Oeste 0 -- -- 79
2020-04-03 09:00:00 1.9 3 Oeste 9 Oeste 0 -- -- 83
2020-04-03 08:00:00 -1.5 7 Oeste 10 Oeste 0 -- -- 95
2020-04-03 07:00:00 -1.6 2 Sudoeste 4 Oeste 0 -- -- 95
2020-04-03 06:00:00 -0.3 0 Calma 13 Oeste 0 -- -- 93
2020-04-03 05:00:00 0.7 4 Oeste 9 Oeste 0 -- -- 92
2020-04-03 04:00:00 1.2 6 Oeste 11 Noroeste 0 -- -- 89
2020-04-03 03:00:00 3 8 Norte 15 Norte 0 -- -- 82
2020-04-03 02:00:00 3.8 6 Noroeste 15 Noroeste 0 -- -- 88
2020-04-03 01:00:00 3.3 3 Oeste 13 Noroeste 0 -- -- 85
2020-04-03 00:00:00 4.7 4 Este 20 Norte 0 -- -- 83
2020-04-02 23:00:00 5.3 14 Norte 26 Norte 0 -- -- 80
2020-04-02 22:00:00 5.6 12 Norte 19 Norte 0 -- -- 84
2020-04-02 21:00:00 5.8 10 Norte 21 Norte 0 -- -- 90
2020-04-02 20:00:00 5.8 8 Norte 22 Norte 0.4 -- -- 94
2020-04-02 19:00:00 6.2 8 Nordeste 17 Nordeste 0 -- -- 90
2020-04-02 18:00:00 6.3 11 Norte 31 Nordeste 0.2 -- -- 88
2020-04-02 17:00:00 7.2 14 Norte 26 Norte 0 -- -- 82
2020-04-02 16:00:00 7 15 Norte 24 Norte 0.2 -- -- 86
2020-04-02 15:00:00 7.8 14 Norte 28 Norte 0 -- -- 80
2020-04-02 14:00:00 7.7 10 Norte 23 Norte 0 -- -- 83
2020-04-02 13:00:00 6.4 9 Norte 17 Noroeste 0.2 -- -- 85
2020-04-02 12:00:00 6.5 7 Norte 14 Noroeste 0 -- -- 85
2020-04-02 11:00:00 5.4 2 Noroeste 9 Norte 0 -- -- 91
2020-04-02 10:00:00 4.1 6 Nordeste 16 Nordeste 0 -- -- 97
2020-04-02 09:00:00 3.9 5 Nordeste 13 Nordeste 0 -- -- 97
2020-04-02 08:00:00 3.9 6 Nordeste 11 Nordeste 0 -- -- 98
2020-04-02 07:00:00 3.9 3 Este 10 Norte 0 -- -- 98
2020-04-02 06:00:00 4 6 Norte 13 Norte 0 -- -- 98
2020-04-02 05:00:00 4.3 5 Nordeste 9 Nordeste 0 -- -- 98
2020-04-02 04:00:00 4.1 0 Calma 6 Noroeste 0 -- -- 98
2020-04-02 03:00:00 4.3 3 Norte 4 Norte 0 -- -- 97
2020-04-02 02:00:00 4.7 0 Calma 6 Este 0 -- -- 97
2020-04-02 01:00:00 4.6 2 Norte 10 Norte 0 -- -- 97
2020-04-02 00:00:00 5 5 Nordeste 9 Nordeste 0 -- -- 96
2020-04-01 23:00:00 4.9 3 Nordeste 9 Nordeste 0 -- -- 95
2020-04-01 22:00:00 4.6 3 Norte 12 Noroeste 0.8 -- -- 93
2020-04-01 21:00:00 5.7 5 Oeste 10 Oeste 0.6 -- -- 93
2020-04-01 20:00:00 5.8 4 Nordeste 13 Nordeste 0 -- -- 92
2020-04-01 19:00:00 6.3 5 Sudoeste 20 Noroeste 1 -- -- 88
2020-04-01 18:00:00 6.4 8 Noroeste 18 Sudoeste 2.2 -- -- 92
2020-04-01 17:00:00 5.4 13 Sudoeste 28 Sudoeste 0.8 -- -- 90
2020-04-01 16:00:00 9.7 12 Este 21 Este 0 -- -- 78
2020-04-01 15:00:00 8.1 9 Este 14 Nordeste 0.6 -- -- 88
2020-04-01 14:00:00 5.8 2 Sudoeste 20 Este 1.2 -- -- 91
2020-04-01 13:00:00 7.3 15 Este 23 Este 0 -- -- 89
2020-04-01 12:00:00 6.6 9 Este 14 Este 0 -- -- 93
2020-04-01 11:00:00 5.6 3 Este 7 Este 0 -- -- 96
2020-04-01 10:00:00 4.5 5 Este 9 Sudeste 0 -- -- 98
2020-04-01 09:00:00 4 3 Este 12 Este 0.4 -- -- 97
2020-04-01 08:00:00 3.9 8 Este 14 Sudeste 0 -- -- 97
2020-04-01 07:00:00 4.1 6 Sudeste 25 Sudeste 1.4 -- -- 98
2020-04-01 06:00:00 4.3 13 Sudeste 24 Sudeste 2.4 -- -- 98
2020-04-01 05:00:00 4.3 2 Este 7 Este 2.2 -- -- 98
2020-04-01 04:00:00 4.7 3 Sudeste 14 Este 0.8 -- -- 98
2020-04-01 03:00:00 4.5 8 Este 16 Este 0.8 -- -- 97
2020-04-01 02:00:00 4.8 9 Este 18 Sudeste 0 -- -- 95
2020-04-01 01:00:00 5 12 Sudeste 18 Sudeste 0 -- -- 95
2020-04-01 00:00:00 4.8 3 Sudeste 14 Este 0 -- -- 95
2020-03-31 23:00:00 4.9 8 Sudeste 14 Este 0 -- -- 95
2020-03-31 22:00:00 4.1 0 Calma 10 Este 0 -- -- 96
2020-03-31 21:00:00 3.9 7 Sudeste 13 Sudeste 0 -- -- 96
2020-03-31 20:00:00 5.1 9 Este 15 Este 0 -- -- 93
2020-03-31 19:00:00 5.6 9 Este 19 Este 0.2 -- -- 90
2020-03-31 18:00:00 5.6 13 Este 25 Sudeste 0 -- -- 88
2020-03-31 17:00:00 6.9 17 Sudeste 29 Sudeste 0 -- -- 85
2020-03-31 16:00:00 5.1 20 Sudeste 28 Sudeste 0 -- -- 88
2020-03-31 15:00:00 4.1 19 Sudeste 31 Sudeste 1.4 -- -- 88
2020-03-31 14:00:00 2.7 13 Sudeste 25 Este 0.4 -- -- 94
2020-03-31 13:00:00 1.1 13 Este 21 Este 0.6 -- -- 95
2020-03-31 12:00:00 0.4 6 Este 12 Este 0.8 -- -- 93
2020-03-31 11:00:00 -0.5 9 Este 12 Este 0 -- -- 95
2020-03-31 10:00:00 -1.6 7 Este 9 Este 0 -- -- 96
2020-03-31 09:00:00 -2.6 6 Este 12 Este 0 -- -- 97
2020-03-31 08:00:00 -3 8 Este 15 Este 0 -- -- 97
2020-03-31 07:00:00 -3.1 10 Este 14 Nordeste 0 -- -- 97
2020-03-31 06:00:00 -3.2 10 Este 18 Este 0 -- -- 96
2020-03-31 05:00:00 -3.2 10 Este 16 Este 0 -- -- 96
2020-03-31 04:00:00 -3.2 6 Este 15 Nordeste 0 -- -- 95
2020-03-31 03:00:00 -3.2 10 Este 22 Nordeste 0 -- -- 95
2020-03-31 02:00:00 -3.2 17 Nordeste 25 Nordeste 0 -- -- 94
2020-03-31 01:00:00 -2.8 17 Nordeste 24 Nordeste 0 -- -- 94
2020-03-31 00:00:00 -2.4 18 Nordeste 25 Nordeste 0 -- -- 94
2020-03-30 23:00:00 -2.1 17 Nordeste 24 Nordeste 0 -- -- 94
2020-03-30 22:00:00 -2.1 18 Nordeste 27 Nordeste 0 -- -- 93
2020-03-30 21:00:00 -1.9 14 Nordeste 22 Este 0 -- -- 93
2020-03-30 20:00:00 -1.5 11 Nordeste 19 Nordeste 0 -- -- 90
2020-03-30 19:00:00 -1.1 15 Nordeste 22 Este 0 -- -- 89
2020-03-30 18:00:00 -0.5 13 Nordeste 20 Nordeste 0 -- -- 87
2020-03-30 17:00:00 -0.3 14 Nordeste 19 Nordeste 0.2 -- -- 89
2020-03-30 16:00:00 -0.2 6 Nordeste 15 Nordeste 0 -- -- 87
2020-03-30 15:00:00 -0.5 8 Nordeste 19 Nordeste 0 -- -- 87
2020-03-30 14:00:00 -0.5 9 Nordeste 17 Nordeste 0 -- -- 86
2020-03-30 13:00:00 -0.1 7 Nordeste 14 Nordeste 0 -- -- 81
2020-03-30 12:00:00 -0.5 8 Nordeste 15 Nordeste 0 -- -- 83
2020-03-30 11:00:00 -1 8 Nordeste 18 Nordeste 0 -- -- 92
2020-03-30 10:00:00 -0.6 8 Nordeste 17 Norte 0 -- -- 96
2020-03-30 09:00:00 -0.2 8 Nordeste 16 Nordeste 0 -- -- 95
2020-03-30 08:00:00 0.8 9 Nordeste 14 Nordeste 0 -- -- 95
2020-03-30 07:00:00 2 6 Norte 18 Norte 0 -- -- 92
2020-03-30 06:00:00 2.6 4 Noroeste 9 Noroeste 0 -- -- 88
2020-03-30 05:00:00 2.7 4 Nordeste 12 Norte 0 -- -- 88
2020-03-30 04:00:00 3.5 3 Nordeste 9 Este 0 -- -- 91
2020-03-30 03:00:00 3.5 3 Este 8 Sudeste 0 -- -- 92
2020-03-30 02:00:00 3.4 6 Este 8 Este 0 -- -- 93
2020-03-30 01:00:00 2.7 3 Sudeste 4 Sudeste 0 -- -- 93
2020-03-30 00:00:00 2.9 0 Calma 3 Este 0 -- -- 89
2020-03-29 23:00:00 4 0 Calma 10 Este 0 -- -- 86
2020-03-29 22:00:00 5 6 Nordeste 15 Este 0 -- -- 83
2020-03-29 21:00:00 6.6 12 Nordeste 25 Nordeste 0 -- -- 72
2020-03-29 20:00:00 9.6 17 Nordeste 24 Nordeste 0 -- -- 52
2020-03-29 19:00:00 13.9 14 Nordeste 24 Nordeste 0 -- -- 39
2020-03-29 18:00:00 15.4 12 Noroeste 30 Norte 0 -- -- 34
2020-03-29 17:00:00 15.2 14 Noroeste 29 Noroeste 0 -- -- 36
2020-03-29 16:00:00 15.2 13 Noroeste 32 Noroeste 0 -- -- 36
2020-03-29 15:00:00 14.9 9 Noroeste 27 Noroeste 0 -- -- 40
2020-03-29 14:00:00 14.1 9 Noroeste 28 Noroeste 0 -- -- 42
2020-03-29 13:00:00 13.4 12 Noroeste 31 Oeste 0 -- -- 42
2020-03-29 12:00:00 11.7 12 Oeste 22 Oeste 0 -- -- 51
2020-03-29 11:00:00 9.4 14 Oeste 21 Oeste 0 -- -- 58
2020-03-29 10:00:00 7.8 12 Oeste 18 Oeste 0 -- -- 62
2020-03-29 09:00:00 4.1 9 Oeste 16 Oeste 0 -- -- 74
2020-03-29 08:00:00 1.4 3 Oeste 13 Oeste 0 -- -- 82
2020-03-29 07:00:00 1.2 6 Oeste 10 Oeste 0 -- -- 83
2020-03-29 06:00:00 1.2 6 Oeste 14 Oeste 0 -- -- 84
2020-03-29 05:00:00 1.7 8 Oeste 12 Oeste 0 -- -- 83
2020-03-29 03:00:00 1.5 6 Oeste 10 Sudoeste 0 -- -- 86
2020-03-29 01:00:00 1.6 5 Oeste 9 Sudoeste 0 -- -- 85
2020-03-29 00:00:00 1.5 5 Sudoeste 10 Oeste 0 -- -- 85
2020-03-28 23:00:00 2.3 6 Oeste 9 Sudoeste 0 -- -- 81
2020-03-28 22:00:00 2.3 6 Oeste 9 Oeste 0 -- -- 80
2020-03-28 21:00:00 3.2 7 Oeste 9 Oeste 0 -- -- 77
2020-03-28 20:00:00 4.8 6 Oeste 8 Oeste 0 -- -- 70
2020-03-28 19:00:00 8.7 2 Nordeste 13 Este 0 -- -- 59
2020-03-28 18:00:00 9.7 5 Norte 13 Norte 0 -- -- 52
2020-03-28 17:00:00 10.6 8 Norte 18 Este 0 -- -- 50
2020-03-28 16:00:00 10.5 9 Este 20 Este 0 -- -- 51
2020-03-28 15:00:00 10.5 13 Este 23 Este 0 -- -- 51
2020-03-28 14:00:00 11.5 7 Sudeste 23 Sudeste 0 -- -- 52
2020-03-28 13:00:00 11.4 10 Este 24 Este 0 -- -- 49
2020-03-28 12:00:00 10 15 Nordeste 23 Este 0 -- -- 54
2020-03-28 11:00:00 8.9 13 Nordeste 20 Este 0 -- -- 52
2020-03-28 10:00:00 7.2 11 Este 15 Este 0 -- -- 62
2020-03-28 09:00:00 4.2 0 Calma 5 Oeste 0 -- -- 79
2020-03-28 08:00:00 1.5 2 Oeste 8 Sudoeste 0 -- -- 90
2020-03-28 07:00:00 0.8 0 Calma 6 Sudoeste 0 -- -- 93
2020-03-28 06:00:00 0.8 4 Oeste 9 Oeste 0 -- -- 90
2020-03-28 05:00:00 0.3 6 Sudoeste 10 Sudoeste 0 -- -- 90
2020-03-28 04:00:00 -0.6 4 Sudoeste 9 Oeste 0 -- -- 92
2020-03-28 03:00:00 -1.6 5 Sudoeste 8 Sudoeste 0 -- -- 94
2020-03-28 02:00:00 -2 2 Sudoeste 6 Oeste 0 -- -- 92
2020-03-28 01:00:00 -1.6 0 Calma 6 Oeste 0 -- -- 93
2020-03-28 00:00:00 -0.9 0 Calma 5 Oeste 0 -- -- 90
2020-03-27 23:00:00 -1.1 4 Oeste 5 Oeste 0 -- -- 88
2020-03-27 22:00:00 1.5 2 Este 15 Nordeste 0 -- -- 81
2020-03-27 21:00:00 3.1 10 Este 22 Nordeste 0 -- -- 73
2020-03-27 20:00:00 3.5 0 Calma 16 Este 0 -- -- 70
2020-03-27 19:00:00 6.2 3 Este 12 Este 0 -- -- 58
2020-03-27 18:00:00 6.3 12 Este 35 Sudeste 0 -- -- 52
2020-03-27 17:00:00 7.2 7 Este 29 Este 0 -- -- 51
2020-03-27 16:00:00 7.3 11 Este 30 Este 0 -- -- 51
2020-03-27 15:00:00 7.9 12 Este 22 Sudeste 0 -- -- 49
2020-03-27 14:00:00 8.4 9 Sudeste 23 Este 0 -- -- 52
2020-03-27 13:00:00 6.6 10 Este 27 Este 0 -- -- 55
2020-03-27 12:00:00 5.5 10 Este 25 Este 0 -- -- 60
2020-03-27 11:00:00 4 10 Nordeste 21 Nordeste 0 -- -- 64
2020-03-27 10:00:00 1.7 13 Este 21 Este 0 -- -- 70
2020-03-27 09:00:00 1.4 13 Este 21 Este 0 -- -- 71
2020-03-27 08:00:00 -0.3 8 Nordeste 14 Nordeste 0 -- -- 79
2020-03-27 07:00:00 -1.9 5 Nordeste 13 Nordeste 0 -- -- 86
2020-03-27 06:00:00 -1.6 4 Norte 15 Este 0 -- -- 81
2020-03-27 05:00:00 -1.5 7 Este 22 Este 0 -- -- 78
2020-03-27 04:00:00 -1.1 12 Este 19 Este 0 -- -- 74
2020-03-27 03:00:00 -1.3 8 Este 13 Este 0 -- -- 74
2020-03-27 02:00:00 -1.7 6 Sudeste 13 Este 0 -- -- 77
2020-03-27 01:00:00 -2.4 3 Este 13 Sudeste 0 -- -- 79
2020-03-27 00:00:00 -1.5 6 Este 22 Este 0 -- -- 73
2020-03-26 23:00:00 -0.5 12 Este 18 Este 0 -- -- 70
2020-03-26 22:00:00 0.4 13 Este 19 Nordeste 0 -- -- 72
2020-03-26 21:00:00 0.5 0 Calma 7 Este 0 -- -- 70
2020-03-26 20:00:00 2.2 3 Nordeste 16 Norte 0 -- -- 62
2020-03-26 19:00:00 5.3 10 Norte 25 Norte 0 -- -- 46
2020-03-26 18:00:00 6.7 13 Norte 34 Noroeste 0 -- -- 43
2020-03-26 17:00:00 7.5 15 Noroeste 32 Norte 0 -- -- 42
2020-03-26 16:00:00 7.6 19 Noroeste 41 Noroeste 0 -- -- 42
2020-03-26 15:00:00 5.7 20 Noroeste 44 Norte 0 -- -- 48
2020-03-26 14:00:00 4.7 19 Noroeste 36 Oeste 0 -- -- 69
2020-03-26 13:00:00 4.1 18 Noroeste 40 Noroeste 0 -- -- 67
2020-03-26 12:00:00 5 18 Noroeste 46 Noroeste 0 -- -- 65
2020-03-26 11:00:00 5.9 24 Norte 46 Noroeste 0 -- -- 59
2020-03-26 10:00:00 3.1 19 Noroeste 34 Noroeste 0 -- -- 72
2020-03-26 09:00:00 2.1 14 Oeste 25 Oeste 0 -- -- 77
2020-03-26 08:00:00 0.5 14 Oeste 23 Sudoeste 0 -- -- 78
2020-03-26 07:00:00 0.1 15 Oeste 24 Oeste 0 -- -- 80
2020-03-26 06:00:00 0.1 9 Oeste 22 Noroeste 0 -- -- 79
2020-03-26 05:00:00 1.6 8 Noroeste 17 Oeste 0 -- -- 84
2020-03-26 04:00:00 2 0 Calma 10 Oeste 0 -- -- 86
2020-03-26 03:00:00 0.8 8 Oeste 13 Oeste 0 -- -- 85
2020-03-26 02:00:00 1.5 7 Oeste 10 Oeste 0 -- -- 81
2020-03-26 01:00:00 2.4 8 Oeste 11 Oeste 0 -- -- 77
2020-03-26 00:00:00 1.2 4 Oeste 6 Oeste 0 -- -- 81
2020-03-25 23:00:00 2.1 0 Calma 8 Oeste 0 -- -- 81
2020-03-25 22:00:00 2.1 3 Oeste 8 Sudoeste 0 -- -- 76
2020-03-25 21:00:00 4 0 Calma 8 Oeste 0 -- -- 72
2020-03-25 20:00:00 4.2 0 Calma 10 Nordeste 0 -- -- 71
2020-03-25 19:00:00 6.7 6 Norte 19 Norte 0 -- -- 57
2020-03-25 18:00:00 8.2 13 Nordeste 23 Nordeste 0 -- -- 65
2020-03-25 17:00:00 9.3 11 Norte 19 Nordeste 0 -- -- 61
2020-03-25 16:00:00 10.1 8 Nordeste 24 Nordeste 0 -- -- 55
2020-03-25 15:00:00 9.4 14 Nordeste 29 Norte 0 -- -- 60
2020-03-25 14:00:00 8.6 16 Norte 35 Norte 0 -- -- 55
2020-03-25 13:00:00 8.4 18 Norte 31 Norte 0 -- -- 71
2020-03-25 12:00:00 7.5 15 Norte 30 Noroeste 0 -- -- 71
2020-03-25 11:00:00 5.7 14 Oeste 26 Oeste 0 -- -- 82
2020-03-25 10:00:00 4.9 16 Oeste 33 Oeste 0 -- -- 87
2020-03-25 09:00:00 4.7 21 Oeste 37 Oeste 0 -- -- 89
2020-03-25 08:00:00 3.6 18 Oeste 28 Oeste 0 -- -- 92
2020-03-25 07:00:00 3.1 13 Oeste 25 Oeste 0 -- -- 91
2020-03-25 06:00:00 3.1 13 Oeste 20 Oeste 0 -- -- 85
2020-03-25 05:00:00 3.1 5 Oeste 20 Sur 0 -- -- 86
2020-03-25 04:00:00 3.6 15 Sur 22 Sur 0 -- -- 79
2020-03-25 03:00:00 3.2 13 Sudoeste 23 Sur 0 -- -- 83
2020-03-25 02:00:00 1.3 5 Sur 13 Sur 0 -- -- 93
2020-03-25 01:00:00 0.3 2 Oeste 12 Sudoeste 0 -- -- 94
2020-03-25 00:00:00 0.2 0 Calma 8 Sudoeste 0 -- -- 94
2020-03-24 23:00:00 0.5 0 Calma 8 Oeste 0 -- -- 94
2020-03-24 22:00:00 0.9 2 Oeste 4 Oeste 0 -- -- 93
2020-03-24 21:00:00 2.3 3 Sudoeste 12 Este 0 -- -- 93
2020-03-24 20:00:00 4.2 9 Nordeste 21 Este 0 -- -- 90
2020-03-24 19:00:00 6.3 14 Este 24 Este 0 -- -- 80
2020-03-24 18:00:00 7.2 17 Este 30 Este 0 -- -- 76
2020-03-24 17:00:00 7.7 19 Este 31 Nordeste 0 -- -- 76
2020-03-24 16:00:00 8.6 19 Este 30 Nordeste 0 -- -- 71
2020-03-24 15:00:00 7.5 15 Nordeste 27 Este 0 -- -- 79
2020-03-24 14:00:00 8 18 Este 30 Este 0 -- -- 71
2020-03-24 13:00:00 7.2 18 Este 30 Este 0 -- -- 78
2020-03-24 12:00:00 7.2 18 Este 30 Este 0 -- -- 83
2020-03-24 11:00:00 6.4 22 Este 33 Este 0 -- -- 84
2020-03-24 10:00:00 7.4 20 Este 31 Este 0 -- -- 86
2020-03-24 09:00:00 5.5 19 Nordeste 31 Este 0 -- -- 93
2020-03-24 08:00:00 5 18 Nordeste 28 Nordeste 0 -- -- 96
2020-03-24 07:00:00 4.9 14 Nordeste 30 Este 0 -- -- 94
2020-03-24 06:00:00 4.9 14 Nordeste 25 Nordeste 0 -- -- 95
2020-03-24 05:00:00 5.1 17 Nordeste 35 Este 0 -- -- 95
2020-03-24 04:00:00 4.5 15 Este 31 Este 0 -- -- 96
2020-03-24 03:00:00 5.1 15 Este 26 Este 0 -- -- 95
2020-03-24 02:00:00 5.5 16 Este 23 Este 0 -- -- 94
2020-03-24 01:00:00 5.7 18 Este 25 Este 0 -- -- 94
2020-03-24 00:00:00 5.5 8 Nordeste 14 Nordeste 0 -- -- 96
2020-03-23 23:00:00 4.9 4 Este 13 Este 0 -- -- 97
2020-03-23 22:00:00 6 8 Este 14 Este 0.2 -- -- 95
2020-03-23 21:00:00 6.1 9 Este 16 Este 0 -- -- 94
2020-03-23 20:00:00 6.2 10 Este 15 Este 0 -- -- 94
2020-03-23 19:00:00 6.6 4 Nordeste 25 Este 0 -- -- 92
2020-03-23 18:00:00 7.1 17 Nordeste 29 Este 0.6 -- -- 91
2020-03-23 17:00:00 7.9 11 Nordeste 24 Este 0 -- -- 85
2020-03-23 16:00:00 9.7 12 Nordeste 19 Este 0.2 -- -- 78
2020-03-23 15:00:00 7.4 16 Este 39 Este 0.4 -- -- 89
2020-03-23 14:00:00 10.4 17 Este 28 Este 0 -- -- 72
2020-03-23 13:00:00 9.1 10 Sudeste 21 Este 0 -- -- 78
2020-03-23 12:00:00 6.8 13 Este 27 Nordeste 0.8 -- -- 91
2020-03-23 11:00:00 6.1 12 Nordeste 30 Nordeste 0.2 -- -- 93
2020-03-23 10:00:00 5.4 15 Nordeste 25 Nordeste 0 -- -- 94
2020-03-23 09:00:00 5.2 15 Nordeste 26 Este 0 -- -- 94
2020-03-23 08:00:00 4.9 10 Nordeste 26 Este 0 -- -- 96
2020-03-23 07:00:00 4.7 15 Este 23 Este 0 -- -- 97
2020-03-23 06:00:00 4.7 9 Este 14 Este 0 -- -- 97
2020-03-23 05:00:00 4.7 9 Este 18 Este 0 -- -- 97
2020-03-23 04:00:00 5 7 Este 10 Este 0 -- -- 97
2020-03-23 03:00:00 4.8 0 Calma 3 Sudeste 0 -- -- 97
2020-03-23 02:00:00 4.7 0 Calma 4 Sur 0 -- -- 97
2020-03-23 01:00:00 4.8 0 Calma 5 Noroeste 0 -- -- 97
2020-03-23 00:00:00 4.6 3 Norte 4 Norte 0.2 -- -- 97
2020-03-22 23:00:00 4.5 2 Sur 4 Este 0 -- -- 96
2020-03-22 22:00:00 5.4 3 Sudeste 10 Este 0.4 -- -- 95
2020-03-22 21:00:00 5.6 5 Sudeste 15 Este 0 -- -- 94
2020-03-22 20:00:00 5.8 9 Este 26 Este 1 -- -- 94
2020-03-22 19:00:00 6.8 12 Nordeste 22 Nordeste 0.2 -- -- 86
2020-03-22 18:00:00 6.9 15 Nordeste 23 Nordeste 0 -- -- 85
2020-03-22 17:00:00 7.2 7 Este 17 Este 0 -- -- 84
2020-03-22 16:00:00 7.3 14 Este 24 Este 0 -- -- 83
2020-03-22 15:00:00 8.2 9 Este 17 Sudeste 0 -- -- 74
2020-03-22 14:00:00 8.3 9 Sudeste 25 Sudeste 0 -- -- 74
2020-03-22 13:00:00 9 9 Este 17 Nordeste 0 -- -- 65
2020-03-22 12:00:00 9.1 10 Este 17 Nordeste 0 -- -- 68
2020-03-22 11:00:00 7.3 8 Nordeste 15 Nordeste 0 -- -- 76
2020-03-22 10:00:00 6.7 6 Nordeste 11 Nordeste 0 -- -- 90
2020-03-22 09:00:00 5.4 5 Nordeste 9 Nordeste 0 -- -- 97
2020-03-22 08:00:00 5 6 Nordeste 10 Nordeste 0.2 -- -- 97
2020-03-22 07:00:00 4.7 3 Norte 5 Norte 1 -- -- 97
2020-03-22 06:00:00 4.8 3 Norte 5 Norte 0.4 -- -- 97
2020-03-22 05:00:00 4.6 0 Calma 8 Sudoeste 0.6 -- -- 96
2020-03-22 04:00:00 4.4 6 Sudoeste 11 Oeste 1.4 -- -- 96
2020-03-22 03:00:00 4.5 7 Oeste 16 Oeste 1.2 -- -- 95
2020-03-22 02:00:00 4.8 10 Oeste 17 Oeste 0.6 -- -- 93
2020-03-22 01:00:00 5.6 9 Oeste 14 Oeste 0 -- -- 89
2020-03-22 00:00:00 6.4 6 Oeste 11 Oeste 0 -- -- 92
2020-03-21 23:00:00 6.7 4 Sudeste 11 Este 0 -- -- 89
2020-03-21 22:00:00 7 0 Calma 8 Sudeste 0 -- -- 86
2020-03-21 21:00:00 7 4 Sudeste 6 Sudeste 0 -- -- 86
2020-03-21 20:00:00 7.4 0 Calma 10 Este 0 -- -- 84
2020-03-21 19:00:00 8.2 7 Este 14 Este 0 -- -- 80
2020-03-21 18:00:00 9 12 Sudeste 19 Este 0 -- -- 74
2020-03-21 17:00:00 9.1 15 Sudeste 21 Este 0 -- -- 75
2020-03-21 16:00:00 8.8 13 Este 19 Este 0 -- -- 79
2020-03-21 15:00:00 8.5 13 Este 17 Este 0 -- -- 78
2020-03-21 14:00:00 8.4 10 Este 14 Este 0 -- -- 77
2020-03-21 13:00:00 8.2 9 Este 14 Este 0 -- -- 76
2020-03-21 12:00:00 8.3 3 Noroeste 15 Oeste 0 -- -- 71
2020-03-21 11:00:00 7.3 3 Este 10 Este 0 -- -- 79
2020-03-21 10:00:00 5.9 5 Sudeste 12 Este 0 -- -- 88
2020-03-21 09:00:00 3.6 2 Este 5 Este 0 -- -- 93
2020-03-21 08:00:00 1.7 0 Calma 4 Oeste 0 -- -- 96
2020-03-21 07:00:00 0 3 Sudoeste 6 Oeste 0 -- -- 97
2020-03-21 06:00:00 0.3 4 Oeste 6 Sudoeste 0 -- -- 97
2020-03-21 05:00:00 1.2 0 Calma 5 Sudoeste 0 -- -- 97
2020-03-21 04:00:00 1.9 0 Calma 4 Sudoeste 0 -- -- 96
2020-03-21 03:00:00 3.1 0 Calma 6 Sudeste 0 -- -- 95
2020-03-21 02:00:00 4.8 0 Calma 7 Nordeste 0 -- -- 96
2020-03-21 01:00:00 3.2 0 Calma 4 Sur 0 -- -- 96
2020-03-21 00:00:00 2.7 2 Sudoeste 6 Sur 0 -- -- 95
2020-03-20 23:00:00 3.9 0 Calma 5 Sudeste 0 -- -- 94
2020-03-20 22:00:00 4.1 4 Oeste 6 Sudoeste 0 -- -- 93
2020-03-20 21:00:00 5.8 3 Sur 7 Sudeste 0 -- -- 89
2020-03-20 20:00:00 7.2 6 Sudeste 15 Sudeste 0 -- -- 86
2020-03-20 19:00:00 8.8 9 Este 24 Sudeste 0 -- -- 79
2020-03-20 18:00:00 10 15 Sudeste 28 Este 0 -- -- 72
2020-03-20 17:00:00 11.3 18 Este 32 Este 0 -- -- 70
2020-03-20 16:00:00 11.9 20 Este 29 Este 0 -- -- 68
2020-03-20 15:00:00 11.5 19 Este 28 Sudeste 0 -- -- 69
2020-03-20 14:00:00 11.5 20 Este 30 Este 0 -- -- 69
2020-03-20 13:00:00 10.7 9 Nordeste 17 Nordeste 0 -- -- 71
2020-03-20 12:00:00 9.3 8 Este 14 Este 0 -- -- 74
2020-03-20 11:00:00 7.3 6 Este 15 Sudeste 0 -- -- 83
2020-03-20 10:00:00 6.2 7 Sudeste 14 Este 0 -- -- 83
2020-03-20 09:00:00 5 9 Sudeste 13 Sudeste 0 -- -- 88
2020-03-20 08:00:00 4.6 4 Sudeste 10 Sudeste 0 -- -- 93
2020-03-20 07:00:00 4.2 5 Sudeste 8 Sudeste 0 -- -- 94
2020-03-20 06:00:00 4.5 2 Este 6 Este 0 -- -- 93
2020-03-20 05:00:00 3.9 3 Este 8 Sur 0 -- -- 93
2020-03-20 04:00:00 3 2 Sudoeste 10 Sudeste 0 -- -- 92
2020-03-20 03:00:00 3.9 10 Sudeste 14 Sudeste 0 -- -- 91
2020-03-20 02:00:00 3.9 5 Sudeste 21 Este 0 -- -- 91
2020-03-20 01:00:00 4.6 11 Sudeste 17 Sudeste 0 -- -- 90
2020-03-20 00:00:00 5.2 6 Este 12 Nordeste 0 -- -- 91
2020-03-19 23:00:00 5.5 5 Nordeste 10 Sudeste 0 -- -- 92
2020-03-19 22:00:00 5.8 5 Sudeste 8 Sudeste 0 -- -- 88
2020-03-19 21:00:00 6.7 4 Este 13 Sudeste 0 -- -- 87
2020-03-19 20:00:00 8.1 4 Sudeste 15 Sudeste 0 -- -- 82
2020-03-19 19:00:00 10.6 8 Sudeste 18 Sudeste 0 -- -- 72
2020-03-19 18:00:00 13 11 Sudeste 29 Este 0 -- -- 52
2020-03-19 17:00:00 13.7 20 Sudeste 31 Este 0 -- -- 46
2020-03-19 16:00:00 14.1 20 Sudeste 30 Sudeste 0 -- -- 49
2020-03-19 15:00:00 14 19 Este 30 Este 0 -- -- 51
2020-03-19 14:00:00 13.4 18 Este 27 Este 0 -- -- 50
2020-03-19 13:00:00 12.6 18 Este 31 Este 0 -- -- 46
2020-03-19 12:00:00 11.4 19 Sudeste 29 Este 0 -- -- 46
2020-03-19 11:00:00 10.5 15 Este 23 Este 0 -- -- 52
2020-03-19 10:00:00 10.2 4 Este 8 Este 0 -- -- 63
2020-03-19 09:00:00 7.1 0 Calma 4 Sudoeste 0 -- -- 76
2020-03-19 08:00:00 2.1 0 Calma 6 Oeste 0 -- -- 91
2020-03-19 07:00:00 1.2 2 Oeste 5 Oeste 0.2 -- -- 95
2020-03-19 06:00:00 1.8 3 Sudoeste 6 Oeste 0 -- -- 97
2020-03-19 05:00:00 1.5 0 Calma 5 Oeste 0 -- -- 97
2020-03-19 04:00:00 1.7 2 Oeste 8 Oeste 0 -- -- 98
2020-03-19 03:00:00 1.6 2 Oeste 4 Oeste 0 -- -- 97
2020-03-19 02:00:00 2.6 0 Calma 2 Sudoeste 0 -- -- 97
2020-03-19 01:00:00 3.1 2 Oeste 4 Oeste 0 -- -- 98
2020-03-19 00:00:00 4.4 0 Calma 4 Oeste 0 -- -- 97
2020-03-18 23:00:00 6 0 Calma 10 Sudeste 0 -- -- 95
2020-03-18 22:00:00 7.8 6 Sudeste 12 Sudeste 0 -- -- 94
2020-03-18 21:00:00 8.4 4 Sudeste 18 Este 0 -- -- 90
2020-03-18 20:00:00 9.5 14 Este 21 Este 0 -- -- 86
2020-03-18 19:00:00 10.9 3 Este 5 Este 0 -- -- 77
2020-03-18 18:00:00 12.4 5 Este 10 Este 0 -- -- 65
2020-03-18 17:00:00 12.9 5 Este 9 Nordeste 0 -- -- 62
2020-03-18 16:00:00 12.7 6 Este 14 Este 0 -- -- 63
2020-03-18 15:00:00 12.3 7 Este 14 Este 0 -- -- 66
2020-03-18 14:00:00 12.8 10 Este 17 Este 0 -- -- 63
2020-03-18 13:00:00 12.7 10 Este 17 Este 0 -- -- 64
2020-03-18 12:00:00 12.6 10 Este 16 Este 0 -- -- 64
2020-03-18 11:00:00 11 5 Este 9 Sudeste 0 -- -- 71
2020-03-18 10:00:00 8.2 5 Este 9 Este 0 -- -- 83
2020-03-18 09:00:00 6 3 Este 5 Este 0 -- -- 97
2020-03-18 08:00:00 3.1 0 Calma 4 Oeste 0 -- -- 99
2020-03-18 07:00:00 3.1 0 Calma 2 Oeste 0 -- -- 99
2020-03-18 06:00:00 3.5 0 Calma 5 Este 0 -- -- 99
2020-03-18 05:00:00 3.9 2 Norte 3 Nordeste 0 -- -- 98
2020-03-18 04:00:00 4.2 0 Calma 4 Este 0 -- -- 98
2020-03-18 03:00:00 4.8 0 Calma 7 Sudeste 0 -- -- 98
2020-03-18 02:00:00 5.4 0 Calma 8 Norte 0 -- -- 98
2020-03-18 01:00:00 5.5 3 Sudeste 7 Sur 0 -- -- 98
2020-03-18 00:00:00 5.4 2 Sudeste 9 Este 0 -- -- 97
2020-03-17 23:00:00 5.8 6 Este 11 Sudeste 0 -- -- 97
2020-03-17 22:00:00 6.1 8 Este 26 Este 0 -- -- 96
2020-03-17 21:00:00 6.8 15 Este 29 Este 0 -- -- 95
2020-03-17 20:00:00 7.4 19 Este 30 Este 0 -- -- 94
2020-03-17 19:00:00 8.1 16 Este 29 Este 0 -- -- 91
2020-03-17 18:00:00 8.6 19 Nordeste 30 Nordeste 0 -- -- 89
2020-03-17 17:00:00 8.3 18 Nordeste 32 Nordeste 0.2 -- -- 97
2020-03-17 16:00:00 8.2 15 Nordeste 32 Nordeste 0.2 -- -- 97
2020-03-17 15:00:00 8.3 8 Este 15 Sudeste 0.4 -- -- 94
2020-03-17 14:00:00 8.1 9 Sudeste 21 Este 1.4 -- -- 98
2020-03-17 13:00:00 8.4 14 Este 26 Este 0.2 -- -- 99
2020-03-17 12:00:00 8.2 7 Este 20 Este 1.2 -- -- 99
2020-03-17 11:00:00 7.3 15 Este 30 Este 1.6 -- -- 99
2020-03-17 10:00:00 6.9 14 Nordeste 25 Nordeste 0.8 -- -- 99
2020-03-17 09:00:00 6.5 16 Nordeste 25 Nordeste 0.4 -- -- 100
2020-03-17 08:00:00 5.7 12 Nordeste 21 Este 1.2 -- -- 99
2020-03-17 07:00:00 5.4 10 Nordeste 20 Este 1.6 -- -- 99
2020-03-17 06:00:00 5.3 11 Nordeste 18 Nordeste 3.4 -- -- 99
2020-03-17 05:00:00 4.6 5 Nordeste 13 Sudeste 6.8 -- -- 100
2020-03-17 04:00:00 4.9 8 Nordeste 22 Nordeste 5.2 -- -- 99
2020-03-17 03:00:00 3.9 6 Este 14 Este 3.8 -- -- 99
2020-03-17 02:00:00 2.2 0 Calma 6 Norte 0.6 -- -- 99
2020-03-17 01:00:00 2 0 Calma 6 Este 0.8 -- -- 99
2020-03-17 00:00:00 1.4 3 Este 10 Este 0.6 -- -- 99
2020-03-16 23:00:00 1.3 7 Sudeste 14 Este 0.8 -- -- 98
2020-03-16 22:00:00 1 6 Sudeste 14 Este 0.6 -- -- 98
2020-03-16 21:00:00 1 3 Este 13 Sudoeste 0.8 -- -- 98
2020-03-16 20:00:00 0.7 4 Oeste 9 Sudoeste 0.6 -- -- 97
2020-03-16 19:00:00 0.8 0 Calma 8 Sudoeste 0.6 -- -- 97
2020-03-16 18:00:00 0.9 3 Norte 6 Norte 0.6 -- -- 96
2020-03-16 17:00:00 0.6 4 Oeste 10 Sudoeste 0.2 -- -- 96
2020-03-16 16:00:00 0.7 7 Oeste 12 Oeste 0.4 -- -- 96
2020-03-16 15:00:00 0.7 3 Noroeste 12 Oeste 0.8 -- -- 96
2020-03-16 14:00:00 1.9 2 Norte 5 Norte 2.2 -- -- 94
2020-03-16 13:00:00 1.1 0 Calma 6 Norte 0.8 -- -- 97
2020-03-16 12:00:00 0.6 4 Noroeste 15 Noroeste 1.2 -- -- 97
2020-03-16 11:00:00 0.4 10 Oeste 20 Oeste 1.4 -- -- 97
2020-03-16 10:00:00 1.1 15 Oeste 32 Oeste 5.8 -- -- 96
2020-03-16 09:00:00 4.2 6 Noroeste 28 Sudoeste 5.8 -- -- 97
2020-03-16 08:00:00 6.1 12 Sudeste 29 Sudeste 0.8 -- -- 96
2020-03-16 07:00:00 5.9 14 Sudeste 29 Este 0.2 -- -- 96
2020-03-16 06:00:00 5.8 15 Sudeste 25 Sudeste 0 -- -- 96
2020-03-16 05:00:00 5.7 14 Sudeste 23 Sudeste 0 -- -- 96
2020-03-16 04:00:00 6.1 13 Sudeste 25 Sudeste 0 -- -- 96
2020-03-16 03:00:00 6.1 8 Sudeste 18 Este 0 -- -- 96
2020-03-16 02:00:00 5.6 13 Este 20 Este 1.4 -- -- 95
2020-03-16 01:00:00 5.8 6 Sur 11 Sur 1.8 -- -- 92
2020-03-16 00:00:00 6 6 Oeste 26 Oeste 0.4 -- -- 89
2020-03-15 23:00:00 7 13 Oeste 40 Oeste 0 -- -- 79
2020-03-15 22:00:00 9.5 17 Sudoeste 32 Sur 0 -- -- 67
2020-03-15 21:00:00 9.8 12 Sudoeste 33 Sur 0 -- -- 68
2020-03-15 20:00:00 9.5 13 Sur 33 Sudoeste 0.4 -- -- 68
2020-03-15 19:00:00 9.4 33 Sudoeste 53 Sudoeste 0.4 -- -- 71
2020-03-15 18:00:00 11.7 23 Sudoeste 44 Sudoeste 0 -- -- 63
2020-03-15 17:00:00 14.4 18 Sudoeste 35 Sudoeste 0 -- -- 55
2020-03-15 16:00:00 15.9 19 Sudoeste 35 Sudoeste 0 -- -- 47
2020-03-15 15:00:00 16.4 19 Sudoeste 43 Sur 0 -- -- 44
2020-03-15 14:00:00 17.9 17 Sudoeste 45 Sur 0 -- -- 42
2020-03-15 13:00:00 16.7 21 Sudoeste 37 Sur 0 -- -- 49
2020-03-15 12:00:00 16.2 17 Sur 32 Sudoeste 0 -- -- 49
2020-03-15 11:00:00 16.7 17 Sur 28 Sudoeste 0 -- -- 45
2020-03-15 10:00:00 15.6 13 Sudoeste 26 Sudoeste 0 -- -- 54
2020-03-15 09:00:00 13.3 15 Sur 24 Sur 0 -- -- 64
2020-03-15 08:00:00 5.5 0 Calma 7 Sudoeste 0 -- -- 87
2020-03-15 07:00:00 4.2 0 Calma 4 Sudoeste 0 -- -- 84
2020-03-15 06:00:00 5.2 0 Calma 10 Sudoeste 0 -- -- 78
2020-03-15 05:00:00 4.4 0 Calma 9 Oeste 0 -- -- 77
2020-03-15 04:00:00 4.4 4 Oeste 9 Sudoeste 0 -- -- 72
2020-03-15 03:00:00 3.4 0 Calma 7 Oeste 0 -- -- 66
2020-03-15 02:00:00 3.4 4 Oeste 9 Oeste 0 -- -- 59
2020-03-15 01:00:00 4.6 6 Oeste 8 Oeste 0 -- -- 56
2020-03-15 00:00:00 4.5 2 Oeste 9 Oeste 0 -- -- 54
2020-03-14 23:00:00 4.5 4 Oeste 10 Sudoeste 0 -- -- 52
2020-03-14 22:00:00 5.1 0 Calma 4 Sudoeste 0 -- -- 52
2020-03-14 21:00:00 6.4 0 Calma 3 Sudeste 0 -- -- 50
2020-03-14 20:00:00 9.1 0 Calma 10 Norte 0 -- -- 40
2020-03-14 19:00:00 12.4 6 Norte 23 Nordeste 0 -- -- 34
2020-03-14 18:00:00 16.2 14 Nordeste 20 Nordeste 0 -- -- 29
2020-03-14 17:00:00 18.2 10 Nordeste 21 Nordeste 0 -- -- 28
2020-03-14 16:00:00 18 10 Nordeste 21 Nordeste 0 -- -- 25
2020-03-14 15:00:00 17 10 Nordeste 24 Nordeste 0 -- -- 29
2020-03-14 14:00:00 16.5 12 Nordeste 21 Nordeste 0 -- -- 36
2020-03-14 13:00:00 15.4 8 Norte 18 Nordeste 0 -- -- 44
2020-03-14 12:00:00 14.6 8 Nordeste 16 Nordeste 0 -- -- 50
2020-03-14 11:00:00 13.1 9 Nordeste 18 Nordeste 0 -- -- 54
2020-03-14 10:00:00 12.3 7 Nordeste 13 Nordeste 0 -- -- 68
2020-03-14 09:00:00 10.9 3 Nordeste 14 Oeste 0 -- -- 74
2020-03-14 08:00:00 6.2 6 Oeste 15 Oeste 0 -- -- 89
2020-03-14 07:00:00 4.5 6 Norte 13 Norte 0 -- -- 94
2020-03-14 06:00:00 3.4 2 Oeste 12 Noroeste 0 -- -- 93
2020-03-14 05:00:00 4.1 5 Noroeste 13 Norte 0 -- -- 94
2020-03-14 04:00:00 3.1 2 Oeste 9 Oeste 0 -- -- 92
2020-03-14 03:00:00 4.3 2 Oeste 9 Norte 0 -- -- 92
2020-03-14 02:00:00 4.5 4 Oeste 13 Sudoeste 0 -- -- 92
2020-03-14 01:00:00 4 8 Oeste 10 Oeste 0 -- -- 92
2020-03-14 00:00:00 3.7 4 Oeste 8 Oeste 0 -- -- 91
2020-03-13 23:00:00 4.3 0 Calma 5 Norte 0 -- -- 88
2020-03-13 22:00:00 5.3 2 Norte 6 Este 0 -- -- 87
2020-03-13 21:00:00 6.8 4 Nordeste 11 Nordeste 0 -- -- 83
2020-03-13 20:00:00 8.4 6 Nordeste 18 Norte 0 -- -- 76
2020-03-13 19:00:00 10.1 11 Norte 25 Nordeste 0 -- -- 71
2020-03-13 18:00:00 14 17 Nordeste 27 Nordeste 0 -- -- 59
2020-03-13 17:00:00 15.3 16 Nordeste 30 Nordeste 0 -- -- 56
2020-03-13 16:00:00 16.2 17 Nordeste 29 Nordeste 0 -- -- 55
2020-03-13 15:00:00 17.3 12 Este 25 Este 0 -- -- 56
2020-03-13 14:00:00 16.7 13 Este 22 Este 0 -- -- 58
2020-03-13 13:00:00 15 15 Este 32 Nordeste 0 -- -- 62
2020-03-13 12:00:00 14.1 15 Este 24 Este 0 -- -- 67
2020-03-13 11:00:00 12.8 13 Este 21 Este 0 -- -- 69
2020-03-13 10:00:00 9.5 10 Este 15 Sudeste 0 -- -- 81
2020-03-13 09:00:00 8.7 7 Sudeste 12 Este 0 -- -- 81
2020-03-13 08:00:00 6.6 7 Este 15 Sudeste 0 -- -- 90
2020-03-13 07:00:00 6.1 3 Este 9 Norte 0 -- -- 93
2020-03-13 06:00:00 6.2 4 Nordeste 13 Sudeste 0 -- -- 94
2020-03-13 05:00:00 6.6 6 Este 13 Nordeste 0 -- -- 94
2020-03-13 04:00:00 6.4 7 Nordeste 13 Norte 0 -- -- 95
2020-03-13 03:00:00 7.2 5 Nordeste 10 Norte 0 -- -- 90
2020-03-13 02:00:00 7.2 0 Calma 8 Norte 0 -- -- 87
2020-03-13 01:00:00 8.3 0 Calma 9 Norte 0 -- -- 84
2020-03-13 00:00:00 10.5 0 Calma 19 Oeste 0 -- -- 69
2020-03-12 23:00:00 9.8 3 Oeste 4 Sudoeste 0 -- -- 74
2020-03-12 22:00:00 9.9 0 Calma 6 Norte 0 -- -- 70
2020-03-12 21:00:00 12.8 0 Calma 10 Sudoeste 0 -- -- 59
2020-03-12 20:00:00 14.6 5 Sudoeste 12 Oeste 0 -- -- 51
2020-03-12 19:00:00 18.5 3 Oeste 17 Sudoeste 0 -- -- 38
2020-03-12 18:00:00 21.6 10 Oeste 24 Sudoeste 0 -- -- 29
2020-03-12 17:00:00 23.1 8 Sudoeste 14 Oeste 0 -- -- 29
2020-03-12 16:00:00 24 8 Nordeste 13 Este 0 -- -- 30
2020-03-12 15:00:00 23.2 5 Norte 17 Norte 0 -- -- 32
2020-03-12 14:00:00 22.9 11 Norte 18 Norte 0 -- -- 32
2020-03-12 13:00:00 24 8 Nordeste 17 Este 0 -- -- 32
2020-03-12 12:00:00 23.4 11 Este 15 Este 0 -- -- 35
2020-03-12 11:00:00 24.3 5 Este 8 Este 0 -- -- 32
2020-03-12 10:00:00 22.9 0 Calma 5 Norte 0 -- -- 35
2020-03-12 09:00:00 16.4 2 Oeste 10 Oeste 0 -- -- 46
2020-03-12 08:00:00 10.6 3 Sudoeste 6 Sudoeste 0 -- -- 57
2020-03-12 07:00:00 7.8 3 Nordeste 6 Sur 0 -- -- 63
2020-03-12 06:00:00 9.1 3 Sudoeste 11 Oeste 0 -- -- 57
2020-03-12 05:00:00 7.9 0 Calma 6 Oeste 0 -- -- 65
2020-03-12 04:00:00 8 0 Calma 7 Este 0 -- -- 68
2020-03-12 03:00:00 7.7 3 Sudoeste 6 Oeste 0 -- -- 71
2020-03-12 02:00:00 9.5 3 Sudoeste 10 Sudoeste 0 -- -- 66
2020-03-12 01:00:00 9.9 5 Sudoeste 14 Oeste 0 -- -- 65
2020-03-12 00:00:00 10.7 9 Oeste 11 Oeste 0 -- -- 63
2020-03-11 23:00:00 13.2 6 Oeste 13 Oeste 0 -- -- 55
2020-03-11 22:00:00 15.2 7 Oeste 12 Oeste 0 -- -- 49
2020-03-11 21:00:00 13.8 6 Oeste 10 Oeste 0 -- -- 53
2020-03-11 20:00:00 15 7 Oeste 9 Oeste 0 -- -- 51
2020-03-11 19:00:00 17.7 4 Oeste 17 Oeste 0 -- -- 43
2020-03-11 18:00:00 21.6 13 Oeste 23 Oeste 0 -- -- 33
2020-03-11 17:00:00 22 14 Oeste 30 Oeste 0 -- -- 33
2020-03-11 16:00:00 23 15 Oeste 30 Oeste 0 -- -- 29
2020-03-11 15:00:00 23 13 Oeste 30 Oeste 0 -- -- 30
2020-03-11 14:00:00 22.3 13 Oeste 26 Oeste 0 -- -- 30
2020-03-11 13:00:00 21 14 Oeste 26 Oeste 0 -- -- 33
2020-03-11 12:00:00 19.7 9 Oeste 18 Oeste 0 -- -- 39
2020-03-11 11:00:00 19.2 4 Sudoeste 13 Oeste 0 -- -- 41
2020-03-11 10:00:00 16.5 8 Oeste 13 Oeste 0 -- -- 46
2020-03-11 09:00:00 12.6 3 Sudoeste 14 Sudoeste 0 -- -- 61
2020-03-11 08:00:00 7.6 8 Sudoeste 12 Sudoeste 0 -- -- 74
2020-03-11 07:00:00 8.9 5 Noroeste 21 Oeste 0 -- -- 65
2020-03-11 06:00:00 9.6 13 Oeste 21 Oeste 0 -- -- 66
2020-03-11 05:00:00 9.5 13 Oeste 21 Oeste 0 -- -- 67
2020-03-11 04:00:00 9.5 13 Oeste 21 Oeste 0 -- -- 67
2020-03-11 03:00:00 9.4 14 Oeste 23 Oeste 0 -- -- 67
2020-03-11 02:00:00 9.7 15 Oeste 22 Oeste 0 -- -- 65
2020-03-11 01:00:00 9.8 12 Noroeste 17 Oeste 0 -- -- 64
2020-03-11 00:00:00 10.1 9 Noroeste 15 Oeste 0 -- -- 63
2020-03-10 23:00:00 10.9 10 Oeste 18 Noroeste 0 -- -- 60
2020-03-10 22:00:00 10.7 10 Noroeste 18 Oeste 0 -- -- 60
2020-03-10 21:00:00 12.7 6 Oeste 13 Oeste 0 -- -- 53
2020-03-10 20:00:00 13.4 7 Oeste 14 Oeste 0 -- -- 51
2020-03-10 19:00:00 15.6 11 Oeste 23 Oeste 0 -- -- 46
2020-03-10 18:00:00 17.8 14 Oeste 27 Oeste 0 -- -- 42
2020-03-10 17:00:00 19.2 17 Oeste 27 Oeste 0 -- -- 39
2020-03-10 16:00:00 20 14 Oeste 28 Oeste 0 -- -- 38
2020-03-10 15:00:00 19.8 10 Oeste 23 Oeste 0 -- -- 37
2020-03-10 14:00:00 18.4 10 Oeste 23 Noroeste 0 -- -- 38
2020-03-10 13:00:00 17.3 13 Noroeste 29 Noroeste 0 -- -- 38
2020-03-10 12:00:00 14.9 18 Oeste 35 Noroeste 0 -- -- 41
2020-03-10 11:00:00 13.2 19 Noroeste 34 Oeste 0 -- -- 43
2020-03-10 10:00:00 9.9 19 Oeste 32 Oeste 0 -- -- 55
2020-03-10 09:00:00 7.2 22 Oeste 32 Oeste 0 -- -- 62
2020-03-10 08:00:00 5.3 19 Oeste 30 Oeste 0 -- -- 67
2020-03-10 07:00:00 4.2 21 Oeste 32 Oeste 0 -- -- 69
2020-03-10 06:00:00 3.4 19 Oeste 29 Oeste 0 -- -- 70
2020-03-10 05:00:00 3.5 19 Oeste 32 Sudoeste 0 -- -- 72
2020-03-10 04:00:00 3.9 23 Oeste 32 Oeste 0 -- -- 70
2020-03-10 03:00:00 3.7 15 Oeste 33 Oeste 0 -- -- 67
2020-03-10 02:00:00 3.4 24 Oeste 33 Oeste 0 -- -- 65
2020-03-10 01:00:00 3.7 22 Oeste 30 Oeste 0 -- -- 61
2020-03-10 00:00:00 4 15 Oeste 30 Oeste 0 -- -- 59